Time;durP1;ratioP1;P1;durP2;ratioP2;P2;SDS_P1;SDS_P2;PMS_P1;PMS_P2;Temp;Humidity;BMP_temperature;BMP_pressure;BME280_temperature;BME280_humidity;BME280_pressure;Samples;Min_cycle;Max_cycle;Signal;HPM_P1;HPM_P2
2021/07/25 00:02:07;;;;;;;21.73;13.10;;;18.00;99.90;;;;;;5050474;28;20554;-58
2021/07/25 00:04:34;;;;;;;20.47;14.23;;;18.10;99.90;;;;;;5051344;28;20451;-58
2021/07/25 00:07:05;;;;;;;21.47;12.97;;;18.20;99.90;;;;;;5050764;28;20499;-58
2021/07/25 00:09:32;;;;;;;22.63;12.83;;;18.10;99.90;;;;;;5051372;28;20443;-58
2021/07/25 00:11:59;;;;;;;19.70;12.10;;;18.10;99.90;;;;;;5050854;28;20941;-58
2021/07/25 00:14:25;;;;;;;20.80;12.40;;;18.20;99.90;;;;;;5051351;28;20472;-58
2021/07/25 00:16:54;;;;;;;16.27;11.03;;;18.20;99.90;;;;;;5050149;28;21050;-58
2021/07/25 00:19:21;;;;;;;18.83;10.73;;;18.40;99.90;;;;;;5050643;28;20447;-58
2021/07/25 00:21:48;;;;;;;13.87;10.13;;;18.40;99.90;;;;;;5050405;28;20444;-58
2021/07/25 00:24:18;;;;;;;16.10;10.03;;;18.30;99.90;;;;;;5051051;28;20525;-58
2021/07/25 00:26:48;;;;;;;16.97;10.57;;;18.40;99.90;;;;;;5052470;28;20460;-58
2021/07/25 00:29:15;;;;;;;12.47;9.20;;;18.50;99.90;;;;;;5054957;28;20483;-58
2021/07/25 00:31:42;;;;;;;13.30;9.00;;;18.60;99.90;;;;;;5054618;28;20483;-59
2021/07/25 00:34:10;;;;;;;15.80;10.00;;;18.60;99.90;;;;;;5054323;28;20475;-58
2021/07/25 00:36:37;;;;;;;16.03;9.83;;;18.60;99.90;;;;;;5054223;28;21038;-58
2021/07/25 00:39:07;;;;;;;14.90;10.20;;;18.50;99.90;;;;;;5054778;28;20461;-58
2021/07/25 00:41:34;;;;;;;16.40;10.33;;;18.50;99.90;;;;;;5054206;28;20454;-58
2021/07/25 00:44:01;;;;;;;16.27;10.17;;;18.50;99.90;;;;;;5054340;28;20537;-58
2021/07/25 00:46:28;;;;;;;17.10;11.10;;;18.20;99.90;;;;;;5054249;28;20439;-58
2021/07/25 00:48:56;;;;;;;17.07;11.60;;;18.10;99.90;;;;;;5053700;28;20494;-58
2021/07/25 00:51:25;;;;;;;17.40;11.20;;;18.00;99.90;;;;;;5054373;28;20471;-58
2021/07/25 00:53:53;;;;;;;16.00;10.30;;;18.10;99.90;;;;;;5054542;28;20497;-58
2021/07/25 00:56:19;;;;;;;16.73;10.60;;;18.20;99.90;;;;;;5054019;28;21033;-58
2021/07/25 00:58:46;;;;;;;15.70;10.70;;;18.30;99.90;;;;;;5054253;28;20455;-59
2021/07/25 01:01:15;;;;;;;19.13;10.13;;;18.40;99.90;;;;;;5054157;28;20498;-58
2021/07/25 01:03:52;;;;;;;14.40;9.47;;;18.50;99.90;;;;;;5053915;28;20989;-59
2021/07/25 01:06:35;;;;;;;14.57;10.70;;;18.50;99.90;;;;;;5054121;28;20455;-59
2021/07/25 01:09:07;;;;;;;14.20;9.70;;;18.50;99.90;;;;;;5054128;28;20531;-59
2021/07/25 01:11:40;;;;;;;16.00;9.23;;;18.60;99.90;;;;;;5053684;28;20573;-59
2021/07/25 01:14:08;;;;;;;12.23;9.20;;;18.60;99.90;;;;;;5053263;28;20472;-58
2021/07/25 01:16:35;;;;;;;12.23;8.37;;;18.70;99.90;;;;;;5053529;28;20879;-58
2021/07/25 01:19:02;;;;;;;12.70;9.30;;;18.80;99.90;;;;;;5053453;28;20498;-58
2021/07/25 01:21:31;;;;;;;12.70;8.60;;;18.80;99.90;;;;;;5054049;28;20474;-58
2021/07/25 01:23:59;;;;;;;12.40;8.77;;;18.70;99.90;;;;;;5053440;28;20479;-58
2021/07/25 01:26:29;;;;;;;10.63;8.47;;;18.60;99.90;;;;;;5053741;28;20459;-58
2021/07/25 01:28:59;;;;;;;12.87;8.40;;;18.60;99.90;;;;;;5053722;28;20444;-58
2021/07/25 01:31:30;;;;;;;14.60;9.10;;;18.50;99.90;;;;;;5053589;28;20479;-58
2021/07/25 01:33:59;;;;;;;17.23;8.87;;;18.50;99.90;;;;;;5053256;28;20538;-58
2021/07/25 01:36:27;;;;;;;16.87;9.80;;;18.50;99.90;;;;;;5053418;28;20505;-58
2021/07/25 01:38:56;;;;;;;12.20;9.43;;;18.40;99.90;;;;;;5053542;28;20502;-58
2021/07/25 01:41:23;;;;;;;16.27;10.17;;;18.40;99.90;;;;;;5053197;28;20448;-58
2021/07/25 01:43:51;;;;;;;13.40;9.33;;;18.50;99.90;;;;;;5053103;28;20521;-58
2021/07/25 01:46:18;;;;;;;14.40;9.47;;;18.50;99.90;;;;;;5053446;28;20948;-58
2021/07/25 01:48:46;;;;;;;13.93;9.50;;;18.60;99.90;;;;;;5053230;28;20444;-58
2021/07/25 01:51:15;;;;;;;12.77;9.73;;;18.60;99.90;;;;;;5053191;28;20483;-58
2021/07/25 01:53:42;;;;;;;12.50;8.83;;;18.60;99.90;;;;;;5053054;28;20463;-58
2021/07/25 01:56:11;;;;;;;16.47;11.17;;;18.60;99.90;;;;;;5052966;28;20478;-59
2021/07/25 01:58:38;;;;;;;12.10;9.43;;;18.60;99.90;;;;;;5052910;28;20525;-58
2021/07/25 02:01:05;;;;;;;13.93;9.80;;;18.70;99.90;;;;;;5053025;28;20502;-58
2021/07/25 02:03:34;;;;;;;14.37;8.90;;;18.70;99.90;;;;;;5052588;28;20483;-59
2021/07/25 02:06:02;;;;;;;15.07;9.20;;;18.70;99.90;;;;;;5052824;28;20817;-58
2021/07/25 02:08:29;;;;;;;12.90;9.37;;;18.80;99.90;;;;;;5052497;28;20497;-59
2021/07/25 02:10:56;;;;;;;14.03;10.27;;;18.80;99.90;;;;;;5052928;28;20510;-58
2021/07/25 02:13:25;;;;;;;14.87;9.77;;;18.80;99.90;;;;;;5052856;28;20544;-58
2021/07/25 02:15:52;;;;;;;16.47;10.60;;;18.60;99.90;;;;;;5052713;28;20528;-58
2021/07/25 02:18:20;;;;;;;14.83;9.80;;;18.60;99.90;;;;;;5052382;28;20825;-58
2021/07/25 02:20:49;;;;;;;15.83;10.07;;;18.40;99.90;;;;;;5052329;28;20861;-58
2021/07/25 02:23:16;;;;;;;19.40;10.37;;;18.50;99.90;;;;;;5051338;28;20467;-58
2021/07/25 02:25:43;;;;;;;18.07;10.73;;;18.30;99.90;;;;;;5052884;28;20447;-58
2021/07/25 02:28:10;;;;;;;13.87;9.40;;;18.40;99.90;;;;;;5052509;28;20452;-58
2021/07/25 02:30:39;;;;;;;13.17;8.90;;;18.50;99.90;;;;;;5051950;28;20906;-58
2021/07/25 02:33:06;;;;;;;20.50;10.23;;;18.50;99.90;;;;;;5052108;28;20491;-58
2021/07/25 02:35:34;;;;;;;11.70;8.90;;;18.50;99.90;;;;;;5051963;28;20452;-58
2021/07/25 02:38:01;;;;;;;12.57;9.23;;;18.40;99.90;;;;;;5052641;28;20807;-58
2021/07/25 02:40:28;;;;;;;15.90;9.80;;;18.40;99.90;;;;;;5051769;28;20508;-58
2021/07/25 02:42:55;;;;;;;13.83;9.47;;;18.30;99.90;;;;;;5051899;28;20533;-58
2021/07/25 02:45:22;;;;;;;12.40;9.20;;;18.30;99.90;;;;;;5051592;28;20451;-58
2021/07/25 02:47:50;;;;;;;14.97;9.80;;;18.40;99.90;;;;;;5051982;28;20501;-58
2021/07/25 02:50:17;;;;;;;15.70;10.37;;;18.50;99.90;;;;;;5043410;28;20459;-58
2021/07/25 02:52:44;;;;;;;13.40;8.73;;;18.50;99.90;;;;;;5051079;28;21134;-58
2021/07/25 02:55:12;;;;;;;11.70;8.80;;;18.50;99.90;;;;;;5052148;28;20448;-58
2021/07/25 02:57:39;;;;;;;11.90;9.77;;;18.50;99.90;;;;;;5052049;28;20451;-58
2021/07/25 03:00:08;;;;;;;13.20;9.00;;;18.40;99.90;;;;;;5051228;28;20452;-59
2021/07/25 03:02:36;;;;;;;16.13;10.53;;;18.40;99.90;;;;;;5075135;22;20475;-62
2021/07/25 03:05:06;;;;;;;15.60;9.20;;;18.40;99.90;;;;;;5071591;28;20459;-61
2021/07/25 03:07:33;;;;;;;14.70;10.67;;;18.40;99.90;;;;;;5072101;28;20454;-61
2021/07/25 03:10:00;;;;;;;17.67;10.87;;;18.40;99.90;;;;;;5071730;28;20884;-61
2021/07/25 03:12:27;;;;;;;14.67;11.20;;;18.30;99.90;;;;;;5069995;28;21045;-61
2021/07/25 03:14:54;;;;;;;15.70;11.37;;;18.20;99.90;;;;;;5071787;28;20832;-60
2021/07/25 03:17:21;;;;;;;15.37;11.07;;;18.20;99.90;;;;;;5071193;28;20455;-60
2021/07/25 03:19:49;;;;;;;11.63;9.70;;;18.20;99.90;;;;;;5070783;28;20447;-61
2021/07/25 03:22:17;;;;;;;16.83;11.07;;;18.30;99.90;;;;;;5071170;28;20858;-61
2021/07/25 03:24:45;;;;;;;13.93;10.27;;;18.30;99.90;;;;;;5071705;28;20458;-61
2021/07/25 03:27:12;;;;;;;16.23;10.87;;;18.40;99.90;;;;;;5071615;28;20504;-61
2021/07/25 03:29:39;;;;;;;15.83;10.77;;;18.50;99.90;;;;;;5071623;28;21101;-60
2021/07/25 03:32:09;;;;;;;17.17;11.10;;;18.40;99.90;;;;;;5070686;28;21004;-61
2021/07/25 03:34:36;;;;;;;17.10;11.53;;;18.40;99.90;;;;;;5071496;28;20528;-61
2021/07/25 03:37:07;;;;;;;13.73;10.43;;;18.40;99.90;;;;;;5071751;28;20451;-61
2021/07/25 03:39:35;;;;;;;18.03;11.50;;;18.50;99.90;;;;;;5071529;28;20869;-60
2021/07/25 03:42:03;;;;;;;12.83;9.83;;;18.50;99.90;;;;;;5070904;28;20869;-61
2021/07/25 03:44:30;;;;;;;15.67;10.33;;;18.50;99.90;;;;;;5071448;28;20521;-61
2021/07/25 03:46:57;;;;;;;17.27;9.83;;;18.60;99.90;;;;;;5071461;28;20447;-61
2021/07/25 03:49:25;;;;;;;17.00;10.67;;;18.60;99.90;;;;;;5071140;28;20544;-61
2021/07/25 03:51:52;;;;;;;15.83;11.30;;;18.50;99.90;;;;;;5070953;28;20474;-61
2021/07/25 03:54:19;;;;;;;15.70;11.40;;;18.50;99.90;;;;;;5071444;28;20479;-61
2021/07/25 03:56:47;;;;;;;15.60;10.30;;;18.40;99.90;;;;;;5071327;28;20450;-61
2021/07/25 03:59:14;;;;;;;19.17;11.77;;;18.40;99.90;;;;;;5071615;28;20541;-61
2021/07/25 04:01:41;;;;;;;16.60;11.20;;;18.50;99.90;;;;;;5072311;28;20515;-61
2021/07/25 04:04:09;;;;;;;18.10;12.17;;;18.50;99.90;;;;;;5074798;28;20482;-61
2021/07/25 04:06:36;;;;;;;17.27;11.33;;;18.50;99.90;;;;;;5075376;28;20500;-61
2021/07/25 04:09:03;;;;;;;13.93;10.73;;;18.50;99.90;;;;;;5074876;28;20447;-61
2021/07/25 04:11:30;;;;;;;13.23;9.60;;;18.50;99.90;;;;;;5074925;28;20446;-61
2021/07/25 04:13:58;;;;;;;15.80;10.63;;;18.40;99.90;;;;;;5073411;28;20478;-61
2021/07/25 04:16:26;;;;;;;16.17;11.50;;;18.50;99.90;;;;;;5070351;28;20459;-60
2021/07/25 04:18:53;;;;;;;15.13;11.60;;;18.40;99.90;;;;;;5074610;28;20500;-61
2021/07/25 04:21:20;;;;;;;17.57;11.93;;;18.30;99.90;;;;;;5072806;28;20543;-61
2021/07/25 04:23:47;;;;;;;16.53;11.50;;;18.40;99.90;;;;;;5080052;28;20856;-60
2021/07/25 04:26:15;;;;;;;19.57;12.33;;;18.30;99.90;;;;;;5078424;28;20507;-60
2021/07/25 04:28:42;;;;;;;14.27;10.80;;;18.40;99.90;;;;;;5095434;28;20476;-61
2021/07/25 04:31:11;;;;;;;14.30;11.03;;;18.40;99.90;;;;;;5074571;28;20532;-61
2021/07/25 04:33:41;;;;;;;15.50;11.90;;;18.50;99.90;;;;;;5074087;28;20556;-60
2021/07/25 04:36:13;;;;;;;15.17;11.60;;;18.50;99.90;;;;;;5074700;28;20442;-61
2021/07/25 04:38:41;;;;;;;12.83;10.37;;;18.60;99.90;;;;;;5074615;28;20559;-60
2021/07/25 04:41:11;;;;;;;13.77;10.90;;;18.70;99.90;;;;;;5074887;28;20500;-61
2021/07/25 04:43:39;;;;;;;14.93;11.67;;;18.80;99.90;;;;;;5066974;28;20467;-61
2021/07/25 04:46:16;;;;;;;15.07;11.93;;;18.80;99.90;;;;;;5060942;28;20450;-61
2021/07/25 04:48:48;;;;;;;16.00;11.60;;;18.80;99.90;;;;;;5072638;28;20904;-61
2021/07/25 04:51:16;;;;;;;15.83;11.43;;;18.80;99.90;;;;;;5074065;28;20466;-61
2021/07/25 04:53:44;;;;;;;17.03;12.17;;;18.60;99.90;;;;;;5065319;28;20571;-61
2021/07/25 04:56:13;;;;;;;16.33;12.63;;;18.60;99.90;;;;;;5073427;28;20455;-61
2021/07/25 04:58:45;;;;;;;18.70;12.07;;;18.50;99.90;;;;;;5073114;28;21237;-61
2021/07/25 05:01:18;;;;;;;18.13;12.40;;;18.50;99.90;;;;;;5072147;28;20512;-61
2021/07/25 05:03:46;;;;;;;16.10;11.63;;;18.40;99.90;;;;;;5072025;28;20488;-61
2021/07/25 05:06:14;;;;;;;14.70;11.30;;;18.40;99.90;;;;;;5073852;28;20512;-61
2021/07/25 05:08:42;;;;;;;20.63;14.10;;;18.60;99.90;;;;;;5073527;28;20473;-61
2021/07/25 05:11:16;;;;;;;20.30;13.30;;;18.50;99.90;;;;;;5073652;28;20529;-61
2021/07/25 05:13:45;;;;;;;18.20;13.80;;;18.50;99.90;;;;;;5072703;28;20543;-61
2021/07/25 05:16:26;;;;;;;17.90;12.50;;;18.50;99.90;;;;;;5073665;28;20454;-61
2021/07/25 05:19:03;;;;;;;17.90;13.00;;;18.50;99.90;;;;;;5074006;28;20454;-60
2021/07/25 05:21:38;;;;;;;18.20;12.97;;;18.50;99.90;;;;;;5073116;28;20470;-60
2021/07/25 05:24:08;;;;;;;16.77;12.03;;;18.50;99.90;;;;;;5068000;28;20516;-60
2021/07/25 05:26:37;;;;;;;17.97;11.90;;;18.60;99.90;;;;;;5073364;28;20873;-60
2021/07/25 05:29:04;;;;;;;18.83;13.13;;;18.70;99.90;;;;;;5073597;28;20497;-61
2021/07/25 05:31:35;;;;;;;14.53;11.80;;;18.70;99.90;;;;;;5073166;28;20484;-61
2021/07/25 05:34:03;;;;;;;17.13;12.23;;;18.70;99.90;;;;;;5072602;28;21020;-60
2021/07/25 05:36:31;;;;;;;18.87;13.43;;;18.70;99.90;;;;;;5073051;28;20447;-61
2021/07/25 05:38:58;;;;;;;19.10;12.93;;;18.70;99.90;;;;;;5072876;28;20455;-60
2021/07/25 05:41:25;;;;;;;17.07;12.70;;;18.80;99.90;;;;;;5073080;28;20500;-60
2021/07/25 05:43:52;;;;;;;19.00;14.60;;;18.90;99.90;;;;;;5072530;28;20459;-60
2021/07/25 05:46:19;;;;;;;18.87;13.07;;;19.10;99.90;;;;;;5073116;28;20504;-61
2021/07/25 05:48:47;;;;;;;18.20;13.37;;;19.20;99.90;;;;;;5073123;28;20443;-60
2021/07/25 05:51:14;;;;;;;18.23;11.93;;;19.30;99.90;;;;;;5072630;28;20922;-60
2021/07/25 05:53:41;;;;;;;18.80;12.67;;;19.20;99.90;;;;;;5072139;28;20867;-60
2021/07/25 05:56:09;;;;;;;15.97;11.43;;;19.30;99.90;;;;;;5073086;28;20534;-60
2021/07/25 05:58:37;;;;;;;19.07;13.07;;;19.30;99.90;;;;;;5072583;28;20546;-60
2021/07/25 06:01:04;;;;;;;18.50;13.20;;;19.20;99.90;;;;;;5072323;28;20531;-60
2021/07/25 06:03:31;;;;;;;18.10;13.10;;;19.30;99.90;;;;;;5071564;28;21022;-60
2021/07/25 06:06:00;;;;;;;15.90;11.93;;;19.40;99.90;;;;;;5072493;28;20455;-61
2021/07/25 06:08:26;;;;;;;15.47;11.70;;;19.90;99.90;;;;;;5072584;28;20921;-60
2021/07/25 06:10:53;;;;;;;16.97;11.83;;;20.50;99.90;;;;;;5067041;28;20493;-61
2021/07/25 06:13:20;;;;;;;16.50;11.30;;;21.00;99.90;;;;;;5072016;28;21003;-60
2021/07/25 06:15:48;;;;;;;12.77;10.47;;;21.50;99.90;;;;;;5072263;28;20455;-60
2021/07/25 06:18:15;;;;;;;14.87;10.63;;;21.50;99.90;;;;;;5071837;28;20534;-60
2021/07/25 06:20:42;;;;;;;14.93;10.97;;;21.40;99.90;;;;;;5072254;28;21017;-61
2021/07/25 06:23:14;;;;;;;14.23;11.27;;;21.20;99.90;;;;;;5071586;28;20514;-61
2021/07/25 06:25:42;;;;;;;13.90;10.60;;;21.10;99.90;;;;;;5071823;28;20443;-60
2021/07/25 06:28:10;;;;;;;12.67;10.63;;;20.80;99.90;;;;;;5072319;28;20508;-61
2021/07/25 06:30:37;;;;;;;14.73;10.80;;;20.60;99.90;;;;;;5071819;28;20477;-61
2021/07/25 06:33:06;;;;;;;12.33;10.63;;;20.50;99.90;;;;;;5071220;28;20525;-61
2021/07/25 06:35:41;;;;;;;17.23;11.20;;;20.50;99.90;;;;;;5071804;28;20451;-61
2021/07/25 06:38:11;;;;;;;16.20;11.00;;;20.40;99.90;;;;;;5071288;28;20446;-61
2021/07/25 06:40:41;;;;;;;14.50;10.40;;;20.30;99.90;;;;;;5071374;28;20447;-61
2021/07/25 06:43:08;;;;;;;17.97;11.67;;;20.50;99.90;;;;;;5071376;28;20462;-61
2021/07/25 06:45:36;;;;;;;13.03;10.10;;;20.60;99.90;;;;;;5071320;28;20450;-61
2021/07/25 06:48:03;;;;;;;17.13;11.10;;;20.70;99.90;;;;;;5068033;28;20895;-61
2021/07/25 06:50:32;;;;;;;13.50;10.40;;;20.80;99.90;;;;;;5071038;28;21018;-61
2021/07/25 06:52:59;;;;;;;14.00;11.23;;;20.50;99.90;;;;;;5071661;28;21073;-60
2021/07/25 06:55:29;;;;;;;19.00;11.27;;;20.30;99.90;;;;;;5071979;28;20497;-61
2021/07/25 06:57:57;;;;;;;18.47;11.10;;;20.40;99.90;;;;;;5070967;28;20447;-61
2021/07/25 07:00:26;;;;;;;17.33;10.90;;;20.40;99.90;;;;;;5071669;28;20516;-61
2021/07/25 07:02:54;;;;;;;12.63;9.83;;;20.30;99.90;;;;;;5061564;28;20985;-61
2021/07/25 07:05:23;;;;;;;14.30;11.20;;;20.40;99.90;;;;;;5070205;28;20446;-61
2021/07/25 07:07:52;;;;;;;13.60;10.57;;;20.40;99.90;;;;;;5071958;28;20497;-61
2021/07/25 07:10:21;;;;;;;14.00;10.37;;;20.30;99.90;;;;;;5071299;28;20793;-61
2021/07/25 07:12:51;;;;;;;11.73;9.93;;;20.50;99.90;;;;;;5070790;28;20571;-61
2021/07/25 07:15:19;;;;;;;16.17;11.27;;;20.50;99.90;;;;;;5071902;28;20500;-61
2021/07/25 07:17:48;;;;;;;15.40;10.90;;;20.50;99.90;;;;;;5071740;28;20828;-61
2021/07/25 07:20:15;;;;;;;19.97;12.43;;;20.60;99.90;;;;;;5071082;28;20500;-60
2021/07/25 07:22:42;;;;;;;14.90;11.20;;;20.70;99.90;;;;;;5071390;28;20494;-61
2021/07/25 07:25:10;;;;;;;13.10;10.67;;;20.90;99.90;;;;;;5071647;28;20447;-61
2021/07/25 07:27:37;;;;;;;13.50;11.60;;;21.50;99.90;;;;;;5071228;28;20450;-61
2021/07/25 07:30:07;;;;;;;13.17;10.37;;;21.70;99.90;;;;;;5071434;28;20451;-61
2021/07/25 07:32:34;;;;;;;14.27;9.77;;;21.50;99.90;;;;;;5071265;28;20451;-61
2021/07/25 07:35:01;;;;;;;14.47;10.47;;;21.40;99.90;;;;;;5071325;28;20447;-61
2021/07/25 07:37:28;;;;;;;13.13;9.83;;;21.70;99.90;;;;;;5071064;28;20447;-61
2021/07/25 07:39:54;;;;;;;15.97;9.90;;;22.20;99.90;;;;;;5070586;28;20443;-61
2021/07/25 07:42:22;;;;;;;12.73;9.60;;;22.50;99.90;;;;;;5070544;28;20451;-61
2021/07/25 07:44:49;;;;;;;11.20;9.37;;;22.70;99.90;;;;;;5070735;28;20524;-61
2021/07/25 07:47:19;;;;;;;14.10;10.50;;;22.80;99.90;;;;;;5071061;28;20451;-61
2021/07/25 07:49:46;;;;;;;12.13;9.40;;;23.00;99.90;;;;;;5071115;28;20451;-61
2021/07/25 07:52:13;;;;;;;12.60;9.37;;;23.40;99.90;;;;;;5070257;28;20808;-61
2021/07/25 07:54:40;;;;;;;14.03;10.40;;;23.50;99.90;;;;;;5071066;28;20486;-61
2021/07/25 07:57:07;;;;;;;13.37;8.90;;;23.50;99.90;;;;;;5071251;28;20508;-61
2021/07/25 07:59:34;;;;;;;11.97;9.70;;;23.40;99.90;;;;;;5071241;28;20455;-61
2021/07/25 08:02:01;;;;;;;11.13;8.53;;;23.20;99.90;;;;;;5070209;28;20447;-61
2021/07/25 08:04:30;;;;;;;15.57;9.90;;;23.10;99.90;;;;;;5070763;28;20478;-61
2021/07/25 08:06:56;;;;;;;11.63;9.27;;;23.00;99.90;;;;;;5070228;28;20965;-61
2021/07/25 08:09:23;;;;;;;11.67;9.07;;;23.00;99.90;;;;;;5070729;28;20446;-61
2021/07/25 08:11:50;;;;;;;12.90;9.00;;;22.80;99.90;;;;;;5070486;28;20459;-61
2021/07/25 08:14:19;;;;;;;11.90;9.23;;;22.90;99.90;;;;;;5070830;28;20483;-61
2021/07/25 08:16:47;;;;;;;12.27;8.57;;;23.10;99.90;;;;;;5069082;28;20523;-61
2021/07/25 08:19:15;;;;;;;12.07;8.80;;;23.20;99.90;;;;;;5064875;28;20453;-61
2021/07/25 08:21:44;;;;;;;12.77;8.13;;;23.10;99.90;;;;;;5070746;28;20474;-61
2021/07/25 08:24:11;;;;;;;12.93;9.20;;;23.10;99.90;;;;;;5070932;28;20469;-60
2021/07/25 08:26:38;;;;;;;12.10;8.33;;;22.60;99.90;;;;;;5070440;28;20998;-61
2021/07/25 08:29:06;;;;;;;11.50;8.30;;;22.40;99.90;;;;;;5068487;28;20500;-61
2021/07/25 08:31:34;;;;;;;11.70;9.00;;;22.40;99.90;;;;;;5060923;28;20511;-61
2021/07/25 08:34:02;;;;;;;13.50;9.53;;;22.40;99.90;;;;;;5070158;28;20543;-61
2021/07/25 08:36:29;;;;;;;11.73;8.17;;;22.40;99.90;;;;;;5070341;28;20832;-61
2021/07/25 08:38:58;;;;;;;12.20;9.87;;;22.30;99.90;;;;;;5069214;28;20839;-61
2021/07/25 08:41:49;;;;;;;14.43;10.07;;;21.90;99.90;;;;;;5061846;28;20455;-61
2021/07/25 08:44:39;;;;;;;13.40;10.60;;;21.70;99.90;;;;;;5056860;28;20879;-60
2021/07/25 08:47:19;;;;;;;12.67;8.90;;;21.70;99.90;;;;;;5068124;28;20450;-61
2021/07/25 08:49:52;;;;;;;14.73;9.50;;;21.70;99.90;;;;;;5086506;28;20529;-60
2021/07/25 08:52:21;;;;;;;12.87;9.33;;;21.70;99.90;;;;;;5073257;28;20450;-61
2021/07/25 08:54:51;;;;;;;12.67;9.37;;;21.60;99.90;;;;;;5073875;28;20566;-61
2021/07/25 08:57:28;;;;;;;13.47;9.60;;;21.60;99.90;;;;;;5073659;28;20450;-61
2021/07/25 08:59:56;;;;;;;16.53;9.63;;;21.80;99.90;;;;;;5073535;28;20493;-61
2021/07/25 09:02:25;;;;;;;12.60;9.87;;;22.00;99.90;;;;;;5071726;28;20995;-61
2021/07/25 09:04:53;;;;;;;10.33;8.77;;;22.20;99.90;;;;;;5073020;28;20479;-61
2021/07/25 09:07:22;;;;;;;10.77;8.80;;;22.60;99.90;;;;;;5081700;28;20958;-61
2021/07/25 09:09:52;;;;;;;11.87;8.77;;;23.10;99.90;;;;;;5071992;28;20952;-61
2021/07/25 09:12:20;;;;;;;10.27;8.50;;;23.60;99.90;;;;;;5072987;28;20454;-61
2021/07/25 09:14:50;;;;;;;11.10;8.90;;;24.30;99.90;;;;;;5073172;28;21365;-61
2021/07/25 09:17:18;;;;;;;14.90;9.33;;;24.70;99.90;;;;;;5072842;28;20520;-61
2021/07/25 09:20:10;;;;;;;11.40;8.60;;;25.00;99.90;;;;;;5068080;22;21022;-60
2021/07/25 09:22:38;;;;;;;14.07;9.47;;;25.20;99.90;;;;;;5026401;28;20477;-60
2021/07/25 09:25:07;;;;;;;13.57;8.93;;;25.10;99.90;;;;;;5040916;28;20448;-60
2021/07/25 09:27:34;;;;;;;10.30;8.60;;;25.10;99.90;;;;;;5033756;28;20518;-60
2021/07/25 09:30:18;;;;;;;12.77;8.37;;;24.90;99.90;;;;;;5016515;28;20892;-60
2021/07/25 09:32:45;;;;;;;11.30;8.80;;;24.20;99.90;;;;;;5013645;28;20488;-61
2021/07/25 09:35:25;;;;;;;12.80;8.10;;;24.10;99.90;;;;;;5013748;28;20488;-60
2021/07/25 09:37:52;;;;;;;11.77;8.90;;;24.10;99.90;;;;;;5013146;28;20615;-58
2021/07/25 09:40:27;;;;;;;10.90;9.27;;;23.90;99.90;;;;;;5022496;28;20530;-59
2021/07/25 09:43:09;;;;;;;11.00;9.03;;;23.80;99.90;;;;;;5028826;28;20535;-59
2021/07/25 09:45:58;;;;;;;11.17;8.43;;;23.70;99.90;;;;;;5013706;28;20503;-60
2021/07/25 09:48:26;;;;;;;16.80;9.17;;;23.70;99.90;;;;;;5013041;28;20553;-60
2021/07/25 09:50:56;;;;;;;11.97;7.90;;;23.80;99.90;;;;;;5026740;28;20445;-60
2021/07/25 09:53:23;;;;;;;10.03;7.90;;;23.90;99.90;;;;;;5024555;28;20454;-59
2021/07/25 09:55:53;;;;;;;8.80;7.30;;;23.90;99.90;;;;;;5013049;28;20880;-60
2021/07/25 09:58:35;;;;;;;12.13;7.83;;;24.00;99.90;;;;;;5013780;28;20560;-60
2021/07/25 10:01:02;;;;;;;8.03;7.20;;;23.80;99.90;;;;;;5019725;28;20453;-58
2021/07/25 10:03:33;;;;;;;9.50;7.37;;;23.80;99.90;;;;;;5013050;28;20967;-60
2021/07/25 10:06:01;;;;;;;10.73;7.67;;;24.10;99.90;;;;;;5012567;28;20986;-60
2021/07/25 10:08:28;;;;;;;10.50;8.20;;;24.20;99.90;;;;;;5012666;28;20913;-59
2021/07/25 10:11:00;;;;;;;10.90;7.93;;;24.20;99.90;;;;;;5026344;28;20510;-59
2021/07/25 10:13:28;;;;;;;11.10;8.20;;;23.90;99.90;;;;;;5032588;28;20927;-58
2021/07/25 10:15:57;;;;;;;12.60;9.80;;;23.50;99.90;;;;;;5016760;28;20907;-60
2021/07/25 10:18:25;;;;;;;11.20;7.87;;;23.40;99.90;;;;;;5012801;28;20508;-60
2021/07/25 10:20:56;;;;;;;10.57;9.30;;;23.60;99.90;;;;;;5018795;28;20451;-59
2021/07/25 10:23:32;;;;;;;9.87;8.10;;;23.50;99.90;;;;;;5030974;28;20456;-60
2021/07/25 10:26:03;;;;;;;10.67;8.37;;;23.70;99.90;;;;;;5014400;28;20449;-60
2021/07/25 10:28:31;;;;;;;10.37;8.07;;;24.10;99.90;;;;;;5012777;28;20480;-59
2021/07/25 10:30:59;;;;;;;13.07;10.67;;;23.70;99.90;;;;;;5014697;28;20474;-59
2021/07/25 10:33:28;;;;;;;10.70;8.20;;;23.70;99.90;;;;;;5032145;28;20452;-60
2021/07/25 10:35:57;;;;;;;9.10;7.90;;;23.60;99.90;;;;;;5026677;28;20485;-60
2021/07/25 10:38:24;;;;;;;10.63;8.10;;;23.40;99.90;;;;;;5011349;28;20807;-60
2021/07/25 10:40:51;;;;;;;11.27;8.67;;;23.40;99.90;;;;;;5016481;28;20872;-60
2021/07/25 10:43:23;;;;;;;12.47;9.03;;;23.60;99.90;;;;;;5012230;28;20445;-59
2021/07/25 10:46:19;;;;;;;14.20;10.13;;;23.50;99.90;;;;;;5012469;28;20540;-59
2021/07/25 10:49:18;;;;;;;14.43;11.30;;;23.60;99.90;;;;;;5011544;28;21059;-59
2021/07/25 10:52:01;;;;;;;16.10;9.87;;;23.00;99.90;;;;;;5011759;28;20449;-58
2021/07/25 10:54:36;;;;;;;14.70;10.80;;;22.90;99.90;;;;;;5012576;28;20481;-58
2021/07/25 10:57:09;;;;;;;10.87;9.43;;;22.80;99.90;;;;;;5024354;28;20894;-59
2021/07/25 10:59:44;;;;;;;14.83;9.90;;;23.10;99.90;;;;;;5031852;28;21035;-59
2021/07/25 11:02:17;;;;;;;12.53;10.70;;;23.20;99.90;;;;;;5015660;28;20869;-59
2021/07/25 11:05:07;;;;;;;13.20;10.10;;;23.10;99.90;;;;;;5012303;28;20457;-59
2021/07/25 11:07:38;;;;;;;12.30;9.60;;;23.30;99.90;;;;;;5028119;28;20449;-59
2021/07/25 11:10:10;;;;;;;11.73;9.70;;;23.50;99.90;;;;;;4992130;28;20524;-56
2021/07/25 11:13:19;;;;;;;16.93;9.93;;;23.50;99.90;;;;;;5001061;28;20445;-58
2021/07/25 11:15:48;;;;;;;10.63;8.90;;;23.80;99.90;;;;;;5020141;28;21014;-58
2021/07/25 11:18:34;;;;;;;9.53;8.53;;;23.60;99.90;;;;;;5004440;28;20450;-58
2021/07/25 11:21:04;;;;;;;12.27;9.20;;;23.70;99.90;;;;;;5011474;28;20459;-55
2021/07/25 11:23:39;;;;;;;14.10;9.03;;;23.70;99.90;;;;;;5010939;28;20454;-56
2021/07/25 11:26:35;;;;;;;10.90;7.70;;;23.60;99.90;;;;;;5013769;28;20596;-55
2021/07/25 11:29:10;;;;;;;11.53;7.63;;;23.90;99.90;;;;;;5031438;28;20469;-56
2021/07/25 11:31:50;;;;;;;11.80;8.07;;;24.30;99.90;;;;;;5019984;28;20449;-58
2021/07/25 11:34:27;;;;;;;10.80;7.60;;;24.60;99.90;;;;;;5012065;28;21089;-56
2021/07/25 11:36:55;;;;;;;9.27;7.53;;;24.30;99.90;;;;;;5011374;28;20452;-57
2021/07/25 11:39:22;;;;;;;8.37;7.50;;;24.50;99.90;;;;;;5011042;28;20473;-57
2021/07/25 11:41:49;;;;;;;9.60;7.67;;;24.40;99.90;;;;;;5011397;28;20883;-58
2021/07/25 11:44:23;;;;;;;8.70;6.93;;;23.90;99.90;;;;;;5011957;28;20468;-55
2021/07/25 11:46:52;;;;;;;8.23;6.70;;;23.90;99.90;;;;;;5011762;28;20454;-54
2021/07/25 11:49:21;;;;;;;8.77;7.13;;;24.30;99.90;;;;;;5011113;28;20473;-55
2021/07/25 11:51:50;;;;;;;10.27;6.97;;;24.60;99.90;;;;;;5011123;28;20453;-55
2021/07/25 11:54:22;;;;;;;7.73;5.60;;;24.70;99.90;;;;;;5011488;28;21019;-54
2021/07/25 11:56:58;;;;;;;6.93;6.23;;;24.30;99.90;;;;;;5011017;28;20457;-54
2021/07/25 11:59:26;;;;;;;7.40;5.60;;;23.80;99.90;;;;;;5011359;28;20464;-55
2021/07/25 12:01:55;;;;;;;8.63;5.53;;;23.70;99.90;;;;;;5011113;28;20457;-55
2021/07/25 12:04:24;;;;;;;6.67;5.90;;;23.40;99.90;;;;;;5011277;28;20516;-53
2021/07/25 12:07:02;;;;;;;10.43;6.70;;;23.20;99.90;;;;;;5010427;28;20450;-55
2021/07/25 12:09:29;;;;;;;7.00;5.67;;;23.00;99.90;;;;;;5003841;28;20847;-55
2021/07/25 12:12:09;;;;;;;11.30;7.40;;;22.70;99.90;;;;;;5011314;28;20489;-55
2021/07/25 12:14:37;;;;;;;7.27;5.70;;;22.50;99.90;;;;;;5010594;28;20543;-54
2021/07/25 12:17:06;;;;;;;6.57;5.87;;;22.30;99.90;;;;;;5002102;28;20524;-54
2021/07/25 12:19:39;;;;;;;12.93;6.40;;;22.30;99.90;;;;;;4991507;28;21066;-55
2021/07/25 12:22:14;;;;;;;8.50;6.13;;;22.40;99.90;;;;;;5006430;28;20534;-55
2021/07/25 12:24:42;;;;;;;7.97;5.93;;;22.30;99.90;;;;;;5015383;28;20519;-54
2021/07/25 12:27:26;;;;;;;7.23;6.20;;;22.20;99.90;;;;;;5023443;28;20452;-54
2021/07/25 12:29:54;;;;;;;9.90;6.20;;;21.90;99.90;;;;;;5034579;28;20463;-54
2021/07/25 12:32:30;;;;;;;9.70;7.27;;;21.90;99.90;;;;;;5017552;28;20457;-55
2021/07/25 12:35:15;;;;;;;8.50;6.70;;;21.70;99.90;;;;;;5015093;28;20535;-54
2021/07/25 12:37:44;;;;;;;8.30;6.80;;;21.60;99.90;;;;;;5023834;28;20500;-54
2021/07/25 12:40:16;;;;;;;7.30;6.23;;;21.50;99.90;;;;;;5014384;28;20560;-54
2021/07/25 12:42:48;;;;;;;7.37;6.13;;;21.40;99.90;;;;;;5014706;28;20503;-55
2021/07/25 12:45:42;;;;;;;7.77;6.10;;;21.40;99.90;;;;;;5022694;28;20451;-54
2021/07/25 12:48:29;;;;;;;7.67;6.23;;;21.30;99.90;;;;;;5018492;28;20459;-54